sensor_id;sensor_type;location;lat;lon;timestamp;pressure;altitude;pressure_sealevel;temperature;humidity
48882;BME280;57063;51.406;-2.402;2023-02-28T00:00:14;102245.16;;;0.14;100.00
48882;BME280;57063;51.406;-2.402;2023-02-28T00:06:40;102266.69;;;0.37;100.00
48882;BME280;57063;51.406;-2.402;2023-02-28T00:54:09;102277.22;;;-0.46;100.00
48882;BME280;57063;51.406;-2.402;2023-02-28T00:56:35;102296.47;;;-0.56;100.00
48882;BME280;57063;51.406;-2.402;2023-02-28T00:59:16;102278.19;;;-0.83;100.00
48882;BME280;57063;51.406;-2.402;2023-02-28T01:01:49;102297.81;;;-0.75;100.00
48882;BME280;57063;51.406;-2.402;2023-02-28T01:04:22;102284.91;;;-0.87;100.00
48882;BME280;57063;51.406;-2.402;2023-02-28T01:06:53;102333.25;;;-0.78;100.00
48882;BME280;57063;51.406;-2.402;2023-02-28T01:09:22;102293.75;;;-1.09;100.00
48882;BME280;57063;51.406;-2.402;2023-02-28T01:12:03;102294.38;;;-1.19;100.00
48882;BME280;57063;51.406;-2.402;2023-02-28T01:14:43;102278.00;;;-1.35;100.00
48882;BME280;57063;51.406;-2.402;2023-02-28T01:17:31;102293.28;;;-1.31;100.00
48882;BME280;57063;51.406;-2.402;2023-02-28T01:23:20;102334.19;;;-1.14;100.00
48882;BME280;57063;51.406;-2.402;2023-02-28T01:25:52;102321.16;;;-1.31;100.00
48882;BME280;57063;51.406;-2.402;2023-02-28T01:28:23;102301.34;;;-1.48;100.00
48882;BME280;57063;51.406;-2.402;2023-02-28T01:31:10;102287.53;;;-1.63;100.00
48882;BME280;57063;51.406;-2.402;2023-02-28T01:33:50;102327.13;;;-1.27;100.00
48882;BME280;57063;51.406;-2.402;2023-02-28T01:36:36;102308.28;;;-1.40;100.00
48882;BME280;57063;51.406;-2.402;2023-02-28T01:39:09;102332.94;;;-1.33;100.00
48882;BME280;57063;51.406;-2.402;2023-02-28T01:41:46;102281.47;;;-1.69;100.00
48882;BME280;57063;51.406;-2.402;2023-02-28T01:47:40;102279.38;;;-1.86;100.00
48882;BME280;57063;51.406;-2.402;2023-02-28T01:50:36;102308.56;;;-1.65;100.00
48882;BME280;57063;51.406;-2.402;2023-02-28T01:53:08;102272.47;;;-1.93;100.00
48882;BME280;57063;51.406;-2.402;2023-02-28T01:55:45;102314.31;;;-1.71;100.00
48882;BME280;57063;51.406;-2.402;2023-02-28T01:58:31;102272.94;;;-2.09;100.00
48882;BME280;57063;51.406;-2.402;2023-02-28T02:01:15;102267.47;;;-1.91;100.00
48882;BME280;57063;51.406;-2.402;2023-02-28T02:03:55;102288.06;;;-1.76;100.00
48882;BME280;57063;51.406;-2.402;2023-02-28T02:06:36;102300.13;;;-1.64;100.00
48882;BME280;57063;51.406;-2.402;2023-02-28T02:09:02;102270.00;;;-1.91;100.00
48882;BME280;57063;51.406;-2.402;2023-02-28T02:11:34;102260.78;;;-1.88;100.00
48882;BME280;57063;51.406;-2.402;2023-02-28T02:14:33;102313.75;;;-1.59;100.00
48882;BME280;57063;51.406;-2.402;2023-02-28T02:26:36;102275.00;;;-1.93;100.00
48882;BME280;57063;51.406;-2.402;2023-02-28T02:37:38;102271.78;;;-1.87;100.00
48882;BME280;57063;51.406;-2.402;2023-02-28T02:40:32;102269.44;;;-1.80;100.00
48882;BME280;57063;51.406;-2.402;2023-02-28T02:43:11;102275.22;;;-1.84;100.00
48882;BME280;57063;51.406;-2.402;2023-02-28T02:45:44;102302.63;;;-1.66;100.00
48882;BME280;57063;51.406;-2.402;2023-02-28T02:48:16;102269.13;;;-1.92;100.00
48882;BME280;57063;51.406;-2.402;2023-02-28T02:50:49;102315.09;;;-1.74;100.00
48882;BME280;57063;51.406;-2.402;2023-02-28T02:53:23;102288.41;;;-1.97;100.00
48882;BME280;57063;51.406;-2.402;2023-02-28T02:55:51;102265.34;;;-2.09;100.00
48882;BME280;57063;51.406;-2.402;2023-02-28T02:58:32;102318.19;;;-1.85;100.00
48882;BME280;57063;51.406;-2.402;2023-02-28T03:01:05;102319.97;;;-1.83;100.00
48882;BME280;57063;51.406;-2.402;2023-02-28T03:03:32;102290.94;;;-1.97;100.00
48882;BME280;57063;51.406;-2.402;2023-02-28T03:06:02;102314.31;;;-1.73;100.00
48882;BME280;57063;51.406;-2.402;2023-02-28T03:08:34;102273.91;;;-2.04;100.00
48882;BME280;57063;51.406;-2.402;2023-02-28T03:11:11;102266.81;;;-1.83;100.00
48882;BME280;57063;51.406;-2.402;2023-02-28T03:19:35;102310.63;;;-1.10;100.00
48882;BME280;57063;51.406;-2.402;2023-02-28T03:22:26;102257.88;;;-1.27;100.00
48882;BME280;57063;51.406;-2.402;2023-02-28T03:27:41;102283.84;;;-0.97;100.00
48882;BME280;57063;51.406;-2.402;2023-02-28T03:30:47;102260.72;;;-1.14;100.00
48882;BME280;57063;51.406;-2.402;2023-02-28T03:33:26;102254.75;;;-1.16;100.00
48882;BME280;57063;51.406;-2.402;2023-02-28T03:36:00;102245.41;;;-1.18;100.00
48882;BME280;57063;51.406;-2.402;2023-02-28T03:39:26;102264.28;;;-1.04;100.00
48882;BME280;57063;51.406;-2.402;2023-02-28T03:41:36;102236.91;;;-1.22;100.00
48882;BME280;57063;51.406;-2.402;2023-02-28T03:44:21;102292.03;;;-0.66;100.00
48882;BME280;57063;51.406;-2.402;2023-02-28T03:47:06;102260.53;;;-0.79;100.00
48882;BME280;57063;51.406;-2.402;2023-02-28T03:49:40;102258.84;;;-0.80;100.00
48882;BME280;57063;51.406;-2.402;2023-02-28T03:52:11;102300.22;;;-0.35;100.00
48882;BME280;57063;51.406;-2.402;2023-02-28T03:54:52;102254.63;;;-0.31;100.00
48882;BME280;57063;51.406;-2.402;2023-02-28T03:57:47;102295.94;;;0.12;100.00
48882;BME280;57063;51.406;-2.402;2023-02-28T04:00:20;102255.78;;;-0.10;100.00
48882;BME280;57063;51.406;-2.402;2023-02-28T04:02:48;102253.44;;;0.02;100.00
48882;BME280;57063;51.406;-2.402;2023-02-28T04:05:19;102252.63;;;0.05;100.00
48882;BME280;57063;51.406;-2.402;2023-02-28T04:07:45;102263.22;;;0.32;100.00
48882;BME280;57063;51.406;-2.402;2023-02-28T04:10:13;102258.22;;;0.38;100.00
48882;BME280;57063;51.406;-2.402;2023-02-28T04:12:40;102281.31;;;0.54;100.00
48882;BME280;57063;51.406;-2.402;2023-02-28T04:15:09;102252.34;;;0.42;100.00
48882;BME280;57063;51.406;-2.402;2023-02-28T04:17:36;102241.31;;;0.40;100.00
48882;BME280;57063;51.406;-2.402;2023-02-28T04:20:02;102252.47;;;0.52;100.00
48882;BME280;57063;51.406;-2.402;2023-02-28T04:22:31;102262.75;;;0.59;100.00
48882;BME280;57063;51.406;-2.402;2023-02-28T04:25:03;102265.38;;;0.67;100.00
48882;BME280;57063;51.406;-2.402;2023-02-28T04:27:29;102280.75;;;0.76;100.00
48882;BME280;57063;51.406;-2.402;2023-02-28T04:29:55;102317.50;;;1.01;100.00
48882;BME280;57063;51.406;-2.402;2023-02-28T04:32:21;102277.34;;;0.77;100.00
48882;BME280;57063;51.406;-2.402;2023-02-28T04:34:52;102275.78;;;0.85;100.00
48882;BME280;57063;51.406;-2.402;2023-02-28T04:37:18;102271.59;;;0.91;100.00
48882;BME280;57063;51.406;-2.402;2023-02-28T04:39:46;102262.38;;;0.99;100.00
48882;BME280;57063;51.406;-2.402;2023-02-28T04:42:13;102319.63;;;1.41;100.00
48882;BME280;57063;51.406;-2.402;2023-02-28T04:44:41;102271.94;;;1.20;100.00
48882;BME280;57063;51.406;-2.402;2023-02-28T04:47:09;102272.81;;;1.23;100.00
48882;BME280;57063;51.406;-2.402;2023-02-28T04:49:35;102288.19;;;1.33;100.00
48882;BME280;57063;51.406;-2.402;2023-02-28T04:52:04;102286.50;;;1.35;100.00
48882;BME280;57063;51.406;-2.402;2023-02-28T04:54:30;102285.66;;;1.36;100.00
48882;BME280;57063;51.406;-2.402;2023-02-28T04:56:58;102324.91;;;1.58;100.00
48882;BME280;57063;51.406;-2.402;2023-02-28T04:59:27;102296.72;;;1.41;100.00
48882;BME280;57063;51.406;-2.402;2023-02-28T05:01:53;102271.28;;;1.41;100.00
48882;BME280;57063;51.406;-2.402;2023-02-28T05:04:19;102274.59;;;1.31;100.00
48882;BME280;57063;51.406;-2.402;2023-02-28T05:06:47;102290.81;;;1.40;100.00
48882;BME280;57063;51.406;-2.402;2023-02-28T05:09:21;102305.25;;;1.46;100.00
48882;BME280;57063;51.406;-2.402;2023-02-28T05:11:47;102287.28;;;1.27;100.00
48882;BME280;57063;51.406;-2.402;2023-02-28T05:14:16;102289.13;;;1.42;100.00
48882;BME280;57063;51.406;-2.402;2023-02-28T05:16:45;102313.84;;;1.56;100.00
48882;BME280;57063;51.406;-2.402;2023-02-28T05:19:13;102329.19;;;1.63;100.00
48882;BME280;57063;51.406;-2.402;2023-02-28T05:21:49;102330.88;;;1.60;100.00
48882;BME280;57063;51.406;-2.402;2023-02-28T05:24:19;102313.78;;;1.46;100.00
48882;BME280;57063;51.406;-2.402;2023-02-28T05:26:49;102303.44;;;1.33;100.00
48882;BME280;57063;51.406;-2.402;2023-02-28T05:29:18;102315.38;;;1.41;100.00
48882;BME280;57063;51.406;-2.402;2023-02-28T05:31:47;102343.56;;;1.57;100.00
48882;BME280;57063;51.406;-2.402;2023-02-28T05:34:13;102308.53;;;1.33;100.00
48882;BME280;57063;51.406;-2.402;2023-02-28T05:36:41;102299.97;;;1.24;100.00
48882;BME280;57063;51.406;-2.402;2023-02-28T05:39:07;102310.06;;;1.18;100.00
48882;BME280;57063;51.406;-2.402;2023-02-28T05:41:38;102332.19;;;1.25;100.00
48882;BME280;57063;51.406;-2.402;2023-02-28T05:44:04;102318.53;;;1.19;100.00
48882;BME280;57063;51.406;-2.402;2023-02-28T05:46:30;102305.69;;;1.06;100.00
48882;BME280;57063;51.406;-2.402;2023-02-28T05:48:56;102328.78;;;1.23;100.00
48882;BME280;57063;51.406;-2.402;2023-02-28T05:51:27;102304.88;;;1.12;100.00
48882;BME280;57063;51.406;-2.402;2023-02-28T05:53:53;102344.16;;;1.33;100.00
48882;BME280;57063;51.406;-2.402;2023-02-28T05:56:18;102332.16;;;1.22;100.00
48882;BME280;57063;51.406;-2.402;2023-02-28T05:58:44;102319.31;;;1.12;100.00
48882;BME280;57063;51.406;-2.402;2023-02-28T06:01:39;102358.63;;;1.38;100.00
48882;BME280;57063;51.406;-2.402;2023-02-28T06:04:08;102321.94;;;1.19;100.00
48882;BME280;57063;51.406;-2.402;2023-02-28T06:06:36;102336.47;;;1.28;100.00
48882;BME280;57063;51.406;-2.402;2023-02-28T06:09:07;102316.88;;;1.21;100.00
48882;BME280;57063;51.406;-2.402;2023-02-28T06:11:33;102355.38;;;1.52;100.00
48882;BME280;57063;51.406;-2.402;2023-02-28T06:14:05;102308.41;;;1.23;100.00
48882;BME280;57063;51.406;-2.402;2023-02-28T06:16:33;102302.56;;;1.31;100.00
48882;BME280;57063;51.406;-2.402;2023-02-28T06:19:02;102310.28;;;1.37;100.00
48882;BME280;57063;51.406;-2.402;2023-02-28T06:21:28;102322.19;;;1.41;100.00
48882;BME280;57063;51.406;-2.402;2023-02-28T06:23:58;102320.59;;;1.49;100.00
48882;BME280;57063;51.406;-2.402;2023-02-28T06:26:24;102306.16;;;1.46;100.00
48882;BME280;57063;51.406;-2.402;2023-02-28T06:28:50;102307.03;;;1.53;100.00
48882;BME280;57063;51.406;-2.402;2023-02-28T06:31:17;102307.88;;;1.52;100.00
48882;BME280;57063;51.406;-2.402;2023-02-28T06:33:44;102313.00;;;1.55;100.00
48882;BME280;57063;51.406;-2.402;2023-02-28T06:36:11;102303.75;;;1.63;100.00
48882;BME280;57063;51.406;-2.402;2023-02-28T06:38:39;102319.00;;;1.60;100.00
48882;BME280;57063;51.406;-2.402;2023-02-28T06:41:06;102319.97;;;1.71;100.00
48882;BME280;57063;51.406;-2.402;2023-02-28T06:43:39;102319.09;;;1.69;100.00
48882;BME280;57063;51.406;-2.402;2023-02-28T06:46:07;102315.75;;;1.74;100.00
48882;BME280;57063;51.406;-2.402;2023-02-28T06:48:33;102312.34;;;1.75;100.00
48882;BME280;57063;51.406;-2.402;2023-02-28T06:51:19;102320.97;;;1.92;100.00
48882;BME280;57063;51.406;-2.402;2023-02-28T06:53:50;102340.59;;;2.04;100.00
48882;BME280;57063;51.406;-2.402;2023-02-28T06:56:19;102305.69;;;1.89;100.00
48882;BME280;57063;51.406;-2.402;2023-02-28T06:58:49;102310.88;;;2.01;100.00
48882;BME280;57063;51.406;-2.402;2023-02-28T07:01:16;102338.28;;;2.30;100.00
48882;BME280;57063;51.406;-2.402;2023-02-28T07:03:42;102314.41;;;2.19;100.00
48882;BME280;57063;51.406;-2.402;2023-02-28T07:06:08;102316.94;;;2.19;100.00
48882;BME280;57063;51.406;-2.402;2023-02-28T07:08:35;102315.25;;;2.19;100.00
48882;BME280;57063;51.406;-2.402;2023-02-28T07:11:03;102351.91;;;2.38;100.00
48882;BME280;57063;51.406;-2.402;2023-02-28T07:13:32;102314.41;;;2.19;100.00
48882;BME280;57063;51.406;-2.402;2023-02-28T07:15:59;102372.38;;;2.47;100.00
48882;BME280;57063;51.406;-2.402;2023-02-28T07:18:32;102340.03;;;2.37;100.00
48882;BME280;57063;51.406;-2.402;2023-02-28T07:21:03;102318.81;;;2.40;100.00
48882;BME280;57063;51.406;-2.402;2023-02-28T07:23:31;102364.94;;;2.78;100.00
48882;BME280;57063;51.406;-2.402;2023-02-28T07:25:57;102330.78;;;2.53;100.00
48882;BME280;57063;51.406;-2.402;2023-02-28T07:28:34;102366.66;;;2.85;100.00
48882;BME280;57063;51.406;-2.402;2023-02-28T07:31:04;102356.47;;;2.84;100.00
48882;BME280;57063;51.406;-2.402;2023-02-28T07:33:36;102335.09;;;2.68;100.00
48882;BME280;57063;51.406;-2.402;2023-02-28T07:36:05;102373.56;;;3.00;100.00
48882;BME280;57063;51.406;-2.402;2023-02-28T07:38:36;102349.72;;;2.93;100.00
48882;BME280;57063;51.406;-2.402;2023-02-28T07:41:03;102345.50;;;3.02;100.00
48882;BME280;57063;51.406;-2.402;2023-02-28T07:43:34;102335.25;;;2.97;100.00
48882;BME280;57063;51.406;-2.402;2023-02-28T07:46:10;102335.34;;;3.12;100.00
48882;BME280;57063;51.406;-2.402;2023-02-28T07:48:37;102382.25;;;3.45;100.00
48882;BME280;57063;51.406;-2.402;2023-02-28T07:51:03;102368.66;;;3.49;100.00
48882;BME280;57063;51.406;-2.402;2023-02-28T07:53:29;102366.94;;;3.50;100.00
48882;BME280;57063;51.406;-2.402;2023-02-28T07:55:56;102342.25;;;3.49;100.00
48882;BME280;57063;51.406;-2.402;2023-02-28T07:58:26;102343.13;;;3.55;100.00
48882;BME280;57063;51.406;-2.402;2023-02-28T08:00:52;102345.69;;;3.63;100.00
48882;BME280;57063;51.406;-2.402;2023-02-28T08:03:21;102338.91;;;3.90;98.76
48882;BME280;57063;51.406;-2.402;2023-02-28T08:05:50;102344.06;;;4.17;97.12
48882;BME280;57063;51.406;-2.402;2023-02-28T08:08:22;102384.88;;;4.72;95.46
48882;BME280;57063;51.406;-2.402;2023-02-28T08:10:52;102372.03;;;4.92;92.84
48882;BME280;57063;51.406;-2.402;2023-02-28T08:13:25;102355.81;;;5.07;90.74
48882;BME280;57063;51.406;-2.402;2023-02-28T08:15:54;102359.25;;;5.03;88.38
48882;BME280;57063;51.406;-2.402;2023-02-28T08:18:26;102366.09;;;4.92;89.79
48882;BME280;57063;51.406;-2.402;2023-02-28T08:20:57;102366.13;;;4.70;90.77
48882;BME280;57063;51.406;-2.402;2023-02-28T08:23:26;102407.84;;;5.08;91.27
48882;BME280;57063;51.406;-2.402;2023-02-28T08:26:05;102412.91;;;5.23;89.79
48882;BME280;57063;51.406;-2.402;2023-02-28T08:28:34;102371.16;;;5.10;88.68
48882;BME280;57063;51.406;-2.402;2023-02-28T08:31:10;102365.13;;;5.19;88.10
48882;BME280;57063;51.406;-2.402;2023-02-28T08:33:37;102370.31;;;5.08;88.95
48882;BME280;57063;51.406;-2.402;2023-02-28T08:36:04;102366.94;;;4.94;89.85
48882;BME280;57063;51.406;-2.402;2023-02-28T08:38:38;102371.09;;;5.26;88.98
48882;BME280;57063;51.406;-2.402;2023-02-28T08:41:08;102377.88;;;5.36;89.22
48882;BME280;57063;51.406;-2.402;2023-02-28T08:54:02;102397.53;;;6.62;81.73
48882;BME280;57063;51.406;-2.402;2023-02-28T10:48:43;102373.41;;;7.49;75.01
48882;BME280;57063;51.406;-2.402;2023-02-28T10:51:19;102356.44;;;7.98;72.33
48882;BME280;57063;51.406;-2.402;2023-02-28T10:53:49;102328.31;;;8.40;70.16
48882;BME280;57063;51.406;-2.402;2023-02-28T11:17:39;102327.41;;;8.44;69.34
48882;BME280;57063;51.406;-2.402;2023-02-28T11:20:21;102346.81;;;8.61;70.09
48882;BME280;57063;51.406;-2.402;2023-02-28T11:22:52;102319.59;;;8.47;70.61
48882;BME280;57063;51.406;-2.402;2023-02-28T11:25:53;102314.66;;;8.82;70.13
48882;BME280;57063;51.406;-2.402;2023-02-28T11:29:08;102320.47;;;8.91;68.15
48882;BME280;57063;51.406;-2.402;2023-02-28T14:27:36;102141.50;;;8.73;72.84
48882;BME280;57063;51.406;-2.402;2023-02-28T14:33:22;102155.03;;;8.80;74.26
48882;BME280;57063;51.406;-2.402;2023-02-28T14:38:31;102115.41;;;8.87;73.99
48882;BME280;57063;51.406;-2.402;2023-02-28T14:41:04;102123.91;;;8.53;75.05
48882;BME280;57063;51.406;-2.402;2023-02-28T14:43:32;102115.81;;;8.28;75.13
48882;BME280;57063;51.406;-2.402;2023-02-28T14:46:02;102133.31;;;8.12;77.06
48882;BME280;57063;51.406;-2.402;2023-02-28T14:48:29;102131.81;;;8.02;77.45
48882;BME280;57063;51.406;-2.402;2023-02-28T14:51:00;102113.06;;;7.96;77.77
48882;BME280;57063;51.406;-2.402;2023-02-28T14:53:29;102098.81;;;7.78;76.50
48882;BME280;57063;51.406;-2.402;2023-02-28T14:55:55;102099.06;;;8.10;75.84
48882;BME280;57063;51.406;-2.402;2023-02-28T14:58:27;102082.44;;;8.27;74.79
48882;BME280;57063;51.406;-2.402;2023-02-28T15:01:10;102129.19;;;8.47;75.20
48882;BME280;57063;51.406;-2.402;2023-02-28T15:03:46;102104.78;;;8.23;75.24
48882;BME280;57063;51.406;-2.402;2023-02-28T15:06:14;102102.03;;;8.31;74.57
48882;BME280;57063;51.406;-2.402;2023-02-28T15:08:43;102117.47;;;8.31;74.69
48882;BME280;57063;51.406;-2.402;2023-02-28T15:11:14;102093.41;;;8.35;74.88
48882;BME280;57063;51.406;-2.402;2023-02-28T15:13:49;102069.47;;;7.89;75.80
48882;BME280;57063;51.406;-2.402;2023-02-28T15:19:07;102062.16;;;8.11;76.72
48882;BME280;57063;51.406;-2.402;2023-02-28T15:25:15;102095.78;;;7.57;79.84
48882;BME280;57063;51.406;-2.402;2023-02-28T15:28:04;102085.50;;;7.09;81.58
48882;BME280;57063;51.406;-2.402;2023-02-28T15:30:31;102052.38;;;6.94;82.47
48882;BME280;57063;51.406;-2.402;2023-02-28T15:54:41;102084.53;;;7.64;80.10
48882;BME280;57063;51.406;-2.402;2023-02-28T15:57:15;102075.19;;;7.12;81.13
48882;BME280;57063;51.406;-2.402;2023-02-28T16:51:29;102097.72;;;6.34;85.13
48882;BME280;57063;51.406;-2.402;2023-02-28T16:54:06;102066.19;;;6.29;83.82
48882;BME280;57063;51.406;-2.402;2023-02-28T16:56:32;102103.66;;;6.39;84.43
48882;BME280;57063;51.406;-2.402;2023-02-28T16:59:05;102102.66;;;6.48;83.49
48882;BME280;57063;51.406;-2.402;2023-02-28T17:46:30;102113.97;;;5.53;86.86
48882;BME280;57063;51.406;-2.402;2023-02-28T17:58:14;102092.16;;;5.12;89.21
48882;BME280;57063;51.406;-2.402;2023-02-28T18:00:45;102109.19;;;5.16;89.82
48882;BME280;57063;51.406;-2.402;2023-02-28T18:03:13;102090.44;;;5.14;90.71
48882;BME280;57063;51.406;-2.402;2023-02-28T18:08:56;102083.72;;;5.01;91.75
48882;BME280;57063;51.406;-2.402;2023-02-28T18:16:53;102105.03;;;5.01;91.74
48882;BME280;57063;51.406;-2.402;2023-02-28T18:19:39;102094.13;;;4.76;93.07
48882;BME280;57063;51.406;-2.402;2023-02-28T18:22:25;102127.19;;;5.02;93.60
48882;BME280;57063;51.406;-2.402;2023-02-28T18:56:11;102074.31;;;5.07;94.44
48882;BME280;57063;51.406;-2.402;2023-02-28T18:59:11;102116.75;;;5.28;94.84
48882;BME280;57063;51.406;-2.402;2023-02-28T19:01:42;102126.97;;;5.33;95.12
48882;BME280;57063;51.406;-2.402;2023-02-28T19:04:30;102082.78;;;5.12;94.92
48882;BME280;57063;51.406;-2.402;2023-02-28T19:06:58;102117.56;;;5.33;94.94
48882;BME280;57063;51.406;-2.402;2023-02-28T19:09:23;102097.97;;;5.31;95.11
48882;BME280;57063;51.406;-2.402;2023-02-28T19:14:47;102098.91;;;5.21;95.43
48882;BME280;57063;51.406;-2.402;2023-02-28T19:17:37;102117.72;;;5.17;97.40
48882;BME280;57063;51.406;-2.402;2023-02-28T19:20:10;102084.81;;;4.67;98.01
48882;BME280;57063;51.406;-2.402;2023-02-28T19:23:05;102121.38;;;4.82;100.00
48882;BME280;57063;51.406;-2.402;2023-02-28T19:25:40;102090.00;;;4.57;100.00
48882;BME280;57063;51.406;-2.402;2023-02-28T19:28:07;102075.56;;;4.46;100.00
48882;BME280;57063;51.406;-2.402;2023-02-28T19:34:14;102074.84;;;4.24;100.00
48882;BME280;57063;51.406;-2.402;2023-02-28T19:36:41;102067.25;;;4.07;100.00
48882;BME280;57063;51.406;-2.402;2023-02-28T19:43:17;102086.00;;;4.03;100.00
48882;BME280;57063;51.406;-2.402;2023-02-28T19:46:28;102079.16;;;4.04;100.00
48882;BME280;57063;51.406;-2.402;2023-02-28T19:48:54;102087.72;;;4.03;100.00
48882;BME280;57063;51.406;-2.402;2023-02-28T19:51:22;102103.84;;;4.17;100.00
48882;BME280;57063;51.406;-2.402;2023-02-28T19:53:59;102102.19;;;4.01;100.00
48882;BME280;57063;51.406;-2.402;2023-02-28T19:56:45;102067.31;;;3.95;100.00
48882;BME280;57063;51.406;-2.402;2023-02-28T19:59:11;102105.50;;;4.21;100.00
48882;BME280;57063;51.406;-2.402;2023-02-28T20:01:38;102091.84;;;4.28;100.00
48882;BME280;57063;51.406;-2.402;2023-02-28T20:27:43;102084.81;;;4.67;97.25
48882;BME280;57063;51.406;-2.402;2023-02-28T20:37:29;102097.50;;;4.81;96.32
48882;BME280;57063;51.406;-2.402;2023-02-28T20:40:46;102101.88;;;4.62;98.91
48882;BME280;57063;51.406;-2.402;2023-02-28T20:54:29;102111.09;;;4.89;95.45
48882;BME280;57063;51.406;-2.402;2023-02-28T20:57:13;102149.13;;;5.34;92.87
48882;BME280;57063;51.406;-2.402;2023-02-28T21:00:12;102118.69;;;5.03;93.30
48882;BME280;57063;51.406;-2.402;2023-02-28T21:03:39;102128.88;;;5.06;94.03
